createdAt,value
2023-04-14T00:02:27.115Z,100481.97
2023-04-14T00:04:55.306Z,100491.41
2023-04-14T00:07:23.303Z,100489.53
2023-04-14T00:09:51.084Z,100484.50
2023-04-14T00:12:19.065Z,100480.28
2023-04-14T00:14:47.113Z,100482.59
2023-04-14T00:17:15.108Z,100482.84
2023-04-14T00:19:44.286Z,100484.00
2023-04-14T00:22:12.254Z,100490.72
2023-04-14T00:24:43.531Z,100492.72
2023-04-14T00:27:11.843Z,100496.75
2023-04-14T00:29:39.914Z,100497.72
2023-04-14T00:32:08.076Z,100492.38
2023-04-14T00:34:35.949Z,100492.66
2023-04-14T00:37:05.342Z,100496.41
2023-04-14T00:39:33.306Z,100495.78
2023-04-14T00:42:02.852Z,100489.34
2023-04-14T00:44:31.183Z,100491.44
2023-04-14T00:47:01.627Z,100495.19
2023-04-14T00:49:29.865Z,100497.06
2023-04-14T00:51:57.907Z,100506.53
2023-04-14T00:54:29.428Z,100513.72
2023-04-14T00:56:57.950Z,100515.84
2023-04-14T00:59:25.885Z,100510.53
2023-04-14T01:01:54.890Z,100523.44
2023-04-14T01:04:24.820Z,100527.28
2023-04-14T01:06:55.305Z,100525.97
2023-04-14T01:09:24.235Z,100531.56
2023-04-14T01:12:03.071Z,100530.69
2023-04-14T01:14:41.689Z,100528.50
2023-04-14T01:17:18.428Z,100531.72
2023-04-14T01:20:03.591Z,100532.88
2023-04-14T01:22:34.199Z,100536.97
2023-04-14T01:25:22.144Z,100534.25
2023-04-14T01:28:06.537Z,100539.13
2023-04-14T01:30:48.787Z,100547.56
2023-04-14T01:33:21.809Z,100541.50
2023-04-14T01:35:51.627Z,100543.72
2023-04-14T01:38:24.853Z,100541.31
2023-04-14T01:40:58.897Z,100546.63
2023-04-14T01:43:29.878Z,100548.13
2023-04-14T01:46:01.818Z,100549.97
2023-04-14T01:48:33.349Z,100555.84
2023-04-14T01:51:03.506Z,100552.50
2023-04-14T01:53:36.768Z,100544.72
2023-04-14T01:56:08.976Z,100552.25
2023-04-14T01:58:38.331Z,100554.41
2023-04-14T02:01:07.800Z,100550.94
2023-04-14T02:03:38.960Z,100555.63
2023-04-14T02:06:08.542Z,100551.31
2023-04-14T02:08:39.830Z,100554.03
2023-04-14T02:11:09.786Z,100547.97
2023-04-14T02:13:40.456Z,100549.81
2023-04-14T02:16:10.714Z,100552.56
2023-04-14T02:18:42.449Z,100549.81
2023-04-14T02:21:11.697Z,100550.81
2023-04-14T02:23:39.578Z,100546.34
2023-04-14T02:26:14.058Z,100554.41
2023-04-14T02:28:47.203Z,100553.53
2023-04-14T02:31:20.276Z,100561.84
2023-04-14T02:33:54.543Z,100556.38
2023-04-14T02:36:28.055Z,100562.00
2023-04-14T02:39:01.606Z,100552.94
2023-04-14T02:41:31.579Z,100557.66
2023-04-14T02:44:06.887Z,100555.78
2023-04-14T02:46:40.534Z,100560.50
2023-04-14T02:49:14.572Z,100563.22
2023-04-14T02:51:46.280Z,100558.75
2023-04-14T02:54:16.502Z,100567.81
2023-04-14T02:56:48.706Z,100570.66
2023-04-14T02:59:19.438Z,100561.59
2023-04-14T03:01:59.810Z,100559.91
2023-04-14T03:04:30.640Z,100570.06
2023-04-14T03:06:59.908Z,100573.66
2023-04-14T03:09:28.456Z,100576.50
2023-04-14T03:11:56.962Z,100573.78
2023-04-14T03:14:26.245Z,100573.78
2023-04-14T03:16:55.463Z,100571.91
2023-04-14T03:19:26.416Z,100568.31
2023-04-14T03:22:00.108Z,100560.22
2023-04-14T03:24:31.245Z,100563.94
2023-04-14T03:27:04.067Z,100570.25
2023-04-14T03:29:35.704Z,100571.38
2023-04-14T03:32:06.896Z,100566.94
2023-04-14T03:34:42.135Z,100579.69
2023-04-14T03:37:12.899Z,100574.50
2023-04-14T03:40:05.205Z,100567.56
2023-04-14T03:42:35.773Z,100567.81
2023-04-14T03:45:05.037Z,100566.94
2023-04-14T03:47:36.167Z,100570.78
2023-04-14T03:50:09.148Z,100570.78
2023-04-14T03:52:43.768Z,100569.91
2023-04-14T03:55:13.613Z,100573.78
2023-04-14T03:57:44.930Z,100574.00
2023-04-14T04:00:15.874Z,100571.28
2023-04-14T04:02:47.269Z,100575.22
2023-04-14T04:05:16.069Z,100578.81
2023-04-14T04:07:47.295Z,100579.97
2023-04-14T04:10:16.299Z,100575.72
2023-04-14T04:12:45.298Z,100579.72
2023-04-14T04:15:13.949Z,100577.22
2023-04-14T04:17:44.317Z,100588.34
2023-04-14T04:20:16.364Z,100590.34
2023-04-14T04:22:50.556Z,100592.44
2023-04-14T04:25:19.671Z,100602.84
2023-04-14T04:27:56.572Z,100595.78
2023-04-14T04:30:26.175Z,100596.75
2023-04-14T04:32:54.714Z,100598.72
2023-04-14T04:35:24.752Z,100602.47
2023-04-14T04:37:54.862Z,100605.19
2023-04-14T04:40:22.751Z,100609.13
2023-04-14T04:42:52.341Z,100602.94
2023-04-14T04:45:31.107Z,100612.06
2023-04-14T04:47:59.458Z,100608.75
2023-04-14T04:50:27.306Z,100611.59
2023-04-14T04:52:56.705Z,100608.00
2023-04-14T04:55:24.545Z,100606.50
2023-04-14T04:57:52.355Z,100606.63
2023-04-14T05:00:22.972Z,100607.59
2023-04-14T05:02:51.372Z,100611.44
2023-04-14T05:05:19.333Z,100606.97
2023-04-14T05:07:47.196Z,100605.38
2023-04-14T05:10:16.444Z,100611.69
2023-04-14T05:12:44.328Z,100606.47
2023-04-14T05:15:12.740Z,100601.91
2023-04-14T05:17:40.566Z,100606.47
2023-04-14T05:20:09.267Z,100604.63
2023-04-14T05:22:37.261Z,100607.34
2023-04-14T05:25:05.560Z,100609.94
2023-04-14T05:27:34.797Z,100610.66
2023-04-14T05:30:02.614Z,100616.00
2023-04-14T05:32:30.638Z,100613.16
2023-04-14T05:34:58.801Z,100613.06
2023-04-14T05:37:30.065Z,100618.28
2023-04-14T05:39:57.988Z,100619.88
2023-04-14T05:42:25.796Z,100614.31
2023-04-14T05:44:54.961Z,100619.53
2023-04-14T05:47:22.753Z,100614.06
2023-04-14T05:49:50.630Z,100615.66
2023-04-14T05:52:18.496Z,100611.84
2023-04-14T05:54:46.342Z,100617.94
2023-04-14T05:57:14.144Z,100618.53
2023-04-14T05:59:43.061Z,100616.34
2023-04-14T06:02:12.346Z,100624.03
2023-04-14T06:04:40.376Z,100621.78
2023-04-14T06:07:08.266Z,100615.84
2023-04-14T06:09:36.152Z,100616.38
2023-04-14T06:12:04.002Z,100614.88
2023-04-14T06:14:31.853Z,100617.84
2023-04-14T06:16:59.717Z,100615.25
2023-04-14T06:19:28.988Z,100613.56
2023-04-14T06:21:56.782Z,100611.19
2023-04-14T06:24:24.615Z,100606.72
2023-04-14T06:26:52.736Z,100615.84
2023-04-14T06:29:20.692Z,100606.78
2023-04-14T06:31:48.580Z,100605.78
2023-04-14T06:34:16.467Z,100603.13
2023-04-14T06:36:45.737Z,100596.66
2023-04-14T06:39:13.750Z,100596.63
2023-04-14T06:41:41.701Z,100599.28
2023-04-14T06:44:11.102Z,100602.94
2023-04-14T06:46:39.521Z,100607.38
2023-04-14T06:49:08.337Z,100602.72
2023-04-14T06:51:36.430Z,100601.81
2023-04-14T06:54:05.822Z,100590.50
2023-04-14T06:56:33.646Z,100583.25
2023-04-14T06:59:01.517Z,100592.50
2023-04-14T07:01:29.329Z,100598.00
2023-04-14T07:03:57.273Z,100585.66
2023-04-14T07:06:25.225Z,100592.91
2023-04-14T07:08:54.177Z,100593.19
2023-04-14T07:11:23.348Z,100588.63
2023-04-14T07:13:51.181Z,100584.34
2023-04-14T07:16:18.963Z,100586.22
2023-04-14T07:18:46.848Z,100577.06
2023-04-14T07:21:14.661Z,100575.19
2023-04-14T07:23:42.577Z,100574.34
2023-04-14T07:26:10.508Z,100575.38
2023-04-14T07:28:39.959Z,100575.25
2023-04-14T07:31:11.684Z,100567.88
2023-04-14T07:33:39.798Z,100567.31
2023-04-14T07:36:08.072Z,100565.41
2023-04-14T07:38:36.451Z,100564.38
2023-04-14T07:41:06.415Z,100570.72
2023-04-14T07:43:35.554Z,100563.34
2023-04-14T07:46:06.534Z,100562.19
2023-04-14T07:48:35.654Z,100553.78
2023-04-14T07:51:04.355Z,100565.41
2023-04-14T07:53:32.460Z,100562.50
2023-04-14T07:56:00.956Z,100555.97
2023-04-14T07:58:29.624Z,100555.75
2023-04-14T08:00:57.805Z,100546.59
2023-04-14T08:03:27.274Z,100549.16
2023-04-14T08:05:55.411Z,100551.25
2023-04-14T08:08:23.737Z,100554.25
2023-04-14T08:10:51.756Z,100550.91
2023-04-14T08:13:19.602Z,100549.75
2023-04-14T08:15:47.517Z,100550.31
2023-04-14T08:18:15.470Z,100559.94
2023-04-14T08:20:44.847Z,100560.50
2023-04-14T08:23:12.832Z,100554.72
2023-04-14T08:25:40.865Z,100559.88
2023-04-14T08:28:08.858Z,100557.56
2023-04-14T08:30:37.307Z,100559.28
2023-04-14T08:33:05.296Z,100550.00
2023-04-14T08:35:37.199Z,100547.81
2023-04-14T08:38:10.870Z,100552.13
2023-04-14T08:40:40.065Z,100548.38
2023-04-14T08:43:08.082Z,100553.00
2023-04-14T08:45:36.890Z,100553.38
2023-04-14T08:48:05.776Z,100548.25
2023-04-14T08:50:37.988Z,100548.81
2023-04-14T08:53:11.191Z,100551.94
2023-04-14T08:55:42.135Z,100551.16
2023-04-14T08:58:11.490Z,100551.41
2023-04-14T09:00:40.154Z,100545.25
2023-04-14T09:03:09.282Z,100544.59
2023-04-14T09:05:37.784Z,100545.84
2023-04-14T09:08:05.859Z,100542.31
2023-04-14T09:10:36.175Z,100528.66
2023-04-14T09:13:06.487Z,100539.88
2023-04-14T09:15:34.440Z,100534.03
2023-04-14T09:18:02.917Z,100526.00
2023-04-14T09:20:35.499Z,100522.75
2023-04-14T09:23:05.155Z,100525.03
2023-04-14T09:25:35.039Z,100518.00
2023-04-14T09:28:03.011Z,100525.75
2023-04-14T09:30:32.323Z,100516.84
2023-04-14T09:33:00.909Z,100510.84
2023-04-14T09:35:44.616Z,100516.53
2023-04-14T09:38:12.472Z,100508.97
2023-04-14T09:40:44.417Z,100511.78
2023-04-14T09:43:25.196Z,100508.84
2023-04-14T09:45:53.249Z,100506.63
2023-04-14T09:48:21.828Z,100510.59
2023-04-14T09:51:01.005Z,100501.66
2023-04-14T09:53:30.151Z,100510.44
2023-04-14T09:56:02.580Z,100522.72
2023-04-14T09:58:32.696Z,100507.22
2023-04-14T10:01:00.710Z,100502.06
2023-04-14T10:03:37.480Z,100509.84
2023-04-14T10:06:09.805Z,100506.91
2023-04-14T10:08:42.664Z,100493.81
2023-04-14T10:11:20.272Z,100503.47
2023-04-14T10:13:49.752Z,100489.72
2023-04-14T10:16:18.144Z,100483.84
2023-04-14T10:18:46.664Z,100485.25
2023-04-14T10:21:16.075Z,100478.19
2023-04-14T10:23:45.201Z,100477.50
2023-04-14T10:26:14.466Z,100464.25
2023-04-14T10:28:45.879Z,100469.06
2023-04-14T10:31:17.371Z,100467.69
2023-04-14T10:33:45.451Z,100464.59
2023-04-14T10:36:13.451Z,100462.34
2023-04-14T10:38:43.515Z,100451.84
2023-04-14T10:41:12.789Z,100452.00
2023-04-14T10:43:41.586Z,100449.75
2023-04-14T10:46:11.102Z,100447.84
2023-04-14T10:48:41.359Z,100433.53
2023-04-14T10:51:11.876Z,100451.13
2023-04-14T10:53:45.850Z,100439.22
2023-04-14T10:56:14.224Z,100438.50
2023-04-14T10:58:42.136Z,100435.25
2023-04-14T11:01:24.499Z,100439.16
2023-04-14T11:03:53.145Z,100426.25
2023-04-14T11:06:53.574Z,100422.09
2023-04-14T11:09:33.238Z,100418.09
2023-04-14T11:12:06.728Z,100414.16
2023-04-14T11:14:36.538Z,100405.69
2023-04-14T11:17:06.433Z,100421.00
2023-04-14T11:19:34.517Z,100417.22
2023-04-14T11:22:02.490Z,100411.53
2023-04-14T11:24:30.395Z,100413.94
2023-04-14T11:26:58.536Z,100408.03
2023-04-14T11:29:26.363Z,100407.69
2023-04-14T11:32:06.636Z,100404.75
2023-04-14T11:34:35.039Z,100399.41
2023-04-14T11:37:03.993Z,100414.06
2023-04-14T11:39:32.218Z,100408.56
2023-04-14T11:42:01.192Z,100401.31
2023-04-14T11:44:30.309Z,100402.16
2023-04-14T11:46:58.251Z,100397.50
2023-04-14T11:49:37.841Z,100391.66
2023-04-14T11:52:07.341Z,100386.28
2023-04-14T11:54:39.320Z,100400.56
2023-04-14T11:57:11.481Z,100394.19
2023-04-14T11:59:43.612Z,100394.88
2023-04-14T12:02:18.319Z,100387.13
2023-04-14T12:04:50.474Z,100397.59
2023-04-14T12:07:20.805Z,100384.66
2023-04-14T12:09:50.373Z,100380.13
2023-04-14T12:12:20.198Z,100380.47
2023-04-14T12:14:49.557Z,100379.06
2023-04-14T12:17:20.369Z,100375.78
2023-04-14T12:19:50.071Z,100374.34
2023-04-14T12:22:26.256Z,100382.75
2023-04-14T12:24:54.264Z,100372.56
2023-04-14T12:27:24.633Z,100368.03
2023-04-14T12:29:53.062Z,100378.91
2023-04-14T12:32:22.198Z,100376.81
2023-04-14T12:34:58.640Z,100374.34
2023-04-14T12:37:28.514Z,100366.75
2023-04-14T12:39:59.500Z,100362.94
2023-04-14T12:42:28.182Z,100371.91
2023-04-14T12:44:57.816Z,100364.28
2023-04-14T12:47:32.645Z,100367.53
2023-04-14T12:50:03.391Z,100355.44
2023-04-14T12:52:35.753Z,100369.72
2023-04-14T12:55:04.782Z,100360.78
2023-04-14T12:57:33.668Z,100344.50
2023-04-14T13:00:02.277Z,100343.47
2023-04-14T13:02:30.916Z,100341.19
2023-04-14T13:04:58.965Z,100337.19
2023-04-14T13:07:28.208Z,100343.19
2023-04-14T13:09:56.027Z,100336.63
2023-04-14T13:12:23.902Z,100328.16
2023-04-14T13:14:53.424Z,100333.09
2023-04-14T13:17:21.429Z,100329.47
2023-04-14T13:19:49.380Z,100322.91
2023-04-14T13:22:18.301Z,100319.09
2023-04-14T13:24:47.592Z,100314.63
2023-04-14T13:27:15.578Z,100318.59
2023-04-14T13:29:43.621Z,100309.63
2023-04-14T13:32:12.042Z,100312.41
2023-04-14T13:34:40.966Z,100320.91
2023-04-14T13:37:08.766Z,100307.28
2023-04-14T13:39:36.701Z,100307.44
2023-04-14T13:42:05.909Z,100299.16
2023-04-14T13:44:35.251Z,100297.63
2023-04-14T13:47:03.504Z,100293.34
2023-04-14T13:49:31.762Z,100299.06
2023-04-14T13:51:59.576Z,100297.34
2023-04-14T13:54:27.519Z,100286.28
2023-04-14T13:56:56.535Z,100281.63
2023-04-14T13:59:25.822Z,100290.59
2023-04-14T14:01:53.784Z,100288.19
2023-04-14T14:04:21.964Z,100289.06
2023-04-14T14:06:49.945Z,100278.00
2023-04-14T14:09:17.917Z,100275.59
2023-04-14T14:11:46.716Z,100273.69
2023-04-14T14:14:14.935Z,100269.22
2023-04-14T14:16:44.191Z,100275.59
2023-04-14T14:19:15.124Z,100265.81
2023-04-14T14:21:44.559Z,100266.84
2023-04-14T14:24:13.155Z,100267.72
2023-04-14T14:26:41.033Z,100261.31
2023-04-14T14:29:09.216Z,100260.66
2023-04-14T14:31:37.150Z,100265.31
2023-04-14T14:34:06.535Z,100261.50
2023-04-14T14:36:34.459Z,100255.31
2023-04-14T14:39:04.002Z,100252.53
2023-04-14T14:41:31.825Z,100248.75
2023-04-14T14:44:01.223Z,100250.47
2023-04-14T14:46:29.666Z,100247.69
2023-04-14T14:48:57.874Z,100243.03
2023-04-14T14:51:27.792Z,100252.84
2023-04-14T14:54:04.230Z,100236.47
2023-04-14T14:56:36.965Z,100230.94
2023-04-14T14:59:05.029Z,100237.97
2023-04-14T15:01:33.654Z,100230.53
2023-04-14T15:04:02.021Z,100232.44
2023-04-14T15:06:31.631Z,100222.94
2023-04-14T15:09:00.110Z,100232.25
2023-04-14T15:11:29.540Z,100223.97
2023-04-14T15:13:58.478Z,100230.34
2023-04-14T15:16:26.582Z,100223.09
2023-04-14T15:18:54.627Z,100223.97
2023-04-14T15:21:22.434Z,100222.25
2023-04-14T15:23:52.019Z,100224.16
2023-04-14T15:26:20.097Z,100221.09
2023-04-14T15:28:48.339Z,100217.03
2023-04-14T15:31:16.218Z,100210.81
2023-04-14T15:33:45.673Z,100212.22
2023-04-14T15:36:13.596Z,100209.88
2023-04-14T15:38:42.273Z,100220.25
2023-04-14T15:41:11.849Z,100212.31
2023-04-14T15:43:39.727Z,100208.22
2023-04-14T15:46:07.774Z,100209.44
2023-04-14T15:48:35.679Z,100204.13
2023-04-14T15:51:04.851Z,100214.47
2023-04-14T15:53:32.982Z,100207.44
2023-04-14T15:56:00.981Z,100211.25
2023-04-14T15:58:30.302Z,100212.28
2023-04-14T16:00:58.526Z,100207.34
2023-04-14T16:03:26.602Z,100203.22
2023-04-14T16:06:02.738Z,100204.94
2023-04-14T16:08:30.800Z,100203.78
2023-04-14T16:10:58.723Z,100198.44
2023-04-14T16:13:26.717Z,100201.56
2023-04-14T16:15:56.187Z,100193.28
2023-04-14T16:18:24.148Z,100209.38
2023-04-14T16:20:52.043Z,100204.03
2023-04-14T16:23:19.964Z,100206.09
2023-04-14T16:25:50.209Z,100206.09
2023-04-14T16:28:18.597Z,100208.19
2023-04-14T16:30:46.753Z,100204.56
2023-04-14T16:33:16.192Z,100207.31
2023-04-14T16:35:44.276Z,100211.34
2023-04-14T16:38:12.278Z,100206.00
2023-04-14T16:40:40.571Z,100219.97
2023-04-14T16:43:09.611Z,100218.25
2023-04-14T16:45:37.476Z,100209.28
2023-04-14T16:48:05.610Z,100211.19
2023-04-14T16:50:38.203Z,100202.75
2023-04-14T16:53:05.978Z,100210.41
2023-04-14T16:55:34.732Z,100211.25
2023-04-14T16:58:03.146Z,100203.66
2023-04-14T17:00:31.073Z,100210.22
2023-04-14T17:02:59.181Z,100204.69
2023-04-14T17:05:27.202Z,100206.81
2023-04-14T17:07:56.466Z,100212.34
2023-04-14T17:10:26.167Z,100204.41
2023-04-14T17:12:53.982Z,100200.78
2023-04-14T17:15:21.944Z,100200.97
2023-04-14T17:17:50.092Z,100194.78
2023-04-14T17:20:18.187Z,100194.13
2023-04-14T17:22:46.936Z,100199.81
2023-04-14T17:25:20.584Z,100188.78
2023-04-14T17:27:49.012Z,100192.06
2023-04-14T17:30:16.903Z,100204.19
2023-04-14T17:32:45.579Z,100207.75
2023-04-14T17:35:14.576Z,100194.34
2023-04-14T17:37:42.607Z,100206.44
2023-04-14T17:40:11.607Z,100202.81
2023-04-14T17:42:42.177Z,100209.38
2023-04-14T17:45:10.962Z,100213.53
2023-04-14T17:47:39.857Z,100212.00
2023-04-14T17:50:09.264Z,100214.94
2023-04-14T17:52:37.356Z,100205.50
2023-04-14T17:55:07.156Z,100216.53
2023-04-14T17:57:35.000Z,100219.63
2023-04-14T18:00:05.846Z,100221.53
2023-04-14T18:02:41.317Z,100220.38
2023-04-14T18:05:10.916Z,100215.91
2023-04-14T18:07:39.039Z,100220.06
2023-04-14T18:10:08.240Z,100225.72
2023-04-14T18:12:36.536Z,100231.59
2023-04-14T18:15:07.099Z,100230.72
2023-04-14T18:17:36.538Z,100230.44
2023-04-14T18:20:04.781Z,100239.91
2023-04-14T18:22:32.622Z,100241.09
2023-04-14T18:25:00.602Z,100240.47
2023-04-14T18:29:59.485Z,100244.75
2023-04-14T18:32:30.103Z,100247.69
2023-04-14T18:34:58.215Z,100250.13
2023-04-14T18:37:26.242Z,100257.91
2023-04-14T18:39:54.542Z,100254.66
2023-04-14T18:42:22.733Z,100266.22
2023-04-14T18:44:50.577Z,100266.03
2023-04-14T18:47:22.344Z,100268.97
2023-04-14T18:49:51.785Z,100273.84
2023-04-14T18:52:19.939Z,100280.88
2023-04-14T18:54:48.231Z,100279.69
2023-04-14T18:57:16.303Z,100277.81
2023-04-14T18:59:44.169Z,100277.66
2023-04-14T19:02:13.671Z,100278.34
2023-04-14T19:04:42.013Z,100292.75
2023-04-14T19:07:11.300Z,100288.66
2023-04-14T19:09:39.204Z,100289.53
2023-04-14T19:12:15.577Z,100290.88
2023-04-14T19:14:53.297Z,100302.75
2023-04-14T19:17:21.203Z,100294.00
2023-04-14T19:19:49.258Z,100298.25
2023-04-14T19:22:18.644Z,100298.44
2023-04-14T19:24:46.739Z,100297.22
2023-04-14T19:27:14.770Z,100303.06
2023-04-14T19:29:42.848Z,100306.16
2023-04-14T19:32:10.743Z,100303.03
2023-04-14T19:34:38.697Z,100310.63
2023-04-14T19:37:06.587Z,100307.34
2023-04-14T19:39:35.862Z,100308.38
2023-04-14T19:42:04.060Z,100316.13
2023-04-14T19:44:32.327Z,100311.81
2023-04-14T19:47:00.376Z,100317.63
2023-04-14T19:49:28.324Z,100319.72
2023-04-14T19:51:56.289Z,100320.91
2023-04-14T19:54:24.508Z,100314.69
2023-04-14T19:56:54.214Z,100317.59
2023-04-14T19:59:22.670Z,100320.88
2023-04-14T20:01:51.479Z,100318.28
2023-04-14T20:04:20.695Z,100328.75
2023-04-14T20:06:49.608Z,100322.53
2023-04-14T20:09:18.402Z,100322.84
2023-04-14T20:11:50.197Z,100321.28
2023-04-14T20:14:19.417Z,100325.41
2023-04-14T20:16:47.254Z,100322.81
2023-04-14T20:19:15.228Z,100321.25
2023-04-14T20:21:43.671Z,100321.44
2023-04-14T20:24:11.896Z,100321.78
2023-04-14T20:26:44.162Z,100318.31
2023-04-14T20:29:12.792Z,100321.41
2023-04-14T20:31:44.167Z,100326.72
2023-04-14T20:34:12.150Z,100319.00
2023-04-14T20:36:40.044Z,100318.13
2023-04-14T20:39:08.460Z,100311.25
2023-04-14T20:41:36.583Z,100316.91
2023-04-14T20:44:04.587Z,100313.63
2023-04-14T20:46:35.333Z,100320.28
2023-04-14T20:49:04.929Z,100320.28
2023-04-14T20:51:33.240Z,100319.78
2023-04-14T20:54:01.316Z,100322.84
2023-04-14T20:56:30.679Z,100313.88
2023-04-14T20:58:59.786Z,100321.28
2023-04-14T21:01:27.999Z,100318.88
2023-04-14T21:03:56.107Z,100318.00
2023-04-14T21:06:25.831Z,100320.91
2023-04-14T21:08:53.790Z,100313.84
2023-04-14T21:11:21.644Z,100318.50
2023-04-14T21:15:40.274Z,100324.16
2023-04-14T21:16:37.460Z,100322.59
2023-04-14T21:19:06.173Z,100331.69
2023-04-14T21:21:35.705Z,100323.44
2023-04-14T21:24:03.672Z,100323.75
2023-04-14T21:26:31.801Z,100320.16
2023-04-14T21:28:59.998Z,100320.34
2023-04-14T21:31:28.458Z,100326.16
2023-04-14T21:33:56.836Z,100315.47
2023-04-14T21:36:25.210Z,100319.25
2023-04-14T21:38:54.574Z,100321.13
2023-04-14T21:41:22.429Z,100318.72
2023-04-14T21:43:50.308Z,100321.63
2023-04-14T21:46:18.364Z,100319.91
2023-04-14T21:48:46.176Z,100323.66
2023-04-14T21:51:14.350Z,100329.31
2023-04-14T21:53:42.321Z,100325.72
2023-04-14T21:56:12.945Z,100321.94
2023-04-14T21:58:40.844Z,100325.03
2023-04-14T22:01:09.930Z,100323.28
2023-04-14T22:03:40.493Z,100327.22
2023-04-14T22:06:29.788Z,100326.66
2023-04-14T22:08:58.165Z,100329.72
2023-04-14T22:11:28.712Z,100330.72
2023-04-14T22:13:56.676Z,100324.72
2023-04-14T22:16:25.470Z,100326.91
2023-04-14T22:18:54.216Z,100327.06
2023-04-14T22:21:22.250Z,100328.22
2023-04-14T22:23:50.355Z,100335.06
2023-04-14T22:26:18.253Z,100323.38
2023-04-14T22:28:47.729Z,100330.91
2023-04-14T22:31:15.562Z,100329.38
2023-04-14T22:33:44.284Z,100335.00
2023-04-14T22:36:12.591Z,100343.38
2023-04-14T22:38:41.969Z,100338.06
2023-04-14T22:41:09.888Z,100340.97
2023-04-14T22:43:37.689Z,100342.00
2023-04-14T22:46:06.975Z,100339.41
2023-04-14T22:48:34.968Z,100336.97
2023-04-14T22:51:02.883Z,100337.97
2023-04-14T22:53:30.850Z,100345.53
2023-04-14T22:55:59.118Z,100339.34
2023-04-14T22:58:27.253Z,100336.03
2023-04-14T23:00:55.078Z,100338.94
2023-04-14T23:03:24.512Z,100341.84
2023-04-14T23:05:52.972Z,100340.44
2023-04-14T23:08:20.765Z,100337.84
2023-04-14T23:10:48.541Z,100346.22
2023-04-14T23:13:16.398Z,100346.53
2023-04-14T23:15:44.279Z,100344.81
2023-04-14T23:18:12.235Z,100349.59
2023-04-14T23:20:41.429Z,100344.25
2023-04-14T23:23:12.182Z,100339.25
2023-04-14T23:25:40.209Z,100345.03
2023-04-14T23:28:08.300Z,100346.22
2023-04-14T23:30:36.829Z,100347.41
2023-04-14T23:33:04.728Z,100355.91
2023-04-14T23:35:32.680Z,100346.16
2023-04-14T23:38:02.485Z,100354.53
2023-04-14T23:40:30.613Z,100349.47
2023-04-14T23:42:59.163Z,100346.91
2023-04-14T23:45:27.303Z,100348.06
2023-04-14T23:47:55.295Z,100352.84
2023-04-14T23:50:23.453Z,100348.53
2023-04-14T23:53:12.887Z,100342.50
2023-04-14T23:55:40.982Z,100345.50
2023-04-14T23:58:08.825Z,100344.78
